Skip Navigation Links
NOAA logo - Click to go to the NOAA homepage
NOAA's National Weather Service
Alaska Aviation Weather Unit
  NWS logo - Click to go to the NWS homepage
Left Navbar Graphic     00 AKDT = 08 GMT

   
NOAA is celebrating 200 years of science, service, and stewardship. Visit the NOAA 200th celebration Web site to learn more.
USA.gov is the U.S. Government's official Web portal to all Federal, state and local government Web resources and services.
Facebook
NWS on Facebook

Important Change Regarding the AAWU Web Presence

 

Over the last several months, the AAWU has been working to navigate its webpages to a nationally supported server. Security, as well as other needs, have necessitated the change.  We have been given an extension for the site changeover while we diligently work at addressing feedback received. As of July 14, 2017, aawu.arh.noaa.gov will be discontinued. The new AAWU web address is weather.gov/aawu. It is now live and will run in-parallel with the old site until it is discontinued on July 14, 2017. Please continue to send any feedback or questions regarding the new webpages to nws.ar.aawu.webauthors@noaa.gov.  Thank you for your patience during this time of transition.
AAWU Home :: Display TAF Add Bookmark
TAF PABR 240540Z 2406/2506  08010KT 2SM BR OVC005
     FM242100 12004KT P6SM BKN015 OVC025
     FM250000 28008KT P6SM OVC025=

4312
FTAK31 PAFA 240540
TAFAOT
TAF

PABR 240205Z 09011KT 4SM BR BKN004 00/M01 A3008= SPECI PABR 240205Z 09011KT 4SM BR BKN004 00/M01 A3008 RMK AO2 VIS 2 NE T00001006= PABR 240213Z 09012KT 2SM BR BKN004 00/M01 A3008= SPECI PABR 240213Z 09012KT 2SM BR BKN004 00/M01 A3008 RMK AO2 T00001006= PABR 240218Z 09011KT 3SM BR OVC005 00/M01 A3007= SPECI PABR 240218Z 09011KT 3SM BR OVC005 00/M01 A3007 RMK AO2 T00001006= PABR 240226Z 10011KT 2 1/2SM R07/4500VP6000FT BR OVC004 00/M01 A3007= PABR 240226Z 10011KT 2 1/2SM R07/4500VP6000FT BR OVC004 00/M01 A3007 RMK AO2 T00001006= PABR 240233Z 09012KT 1SM R07/3500VP6000FT BR OVC005 00/00 A3007= SPECI PABR 240233Z 09012KT 1SM R07/3500VP6000FT BR OVC005 00/00 A3007 RMK AO2 T00000000= PABR 240239Z 09011KT 2 1/2SM BR BKN003 OVC005 00/M01 A3007= SPECI PABR 240239Z 09011KT 2 1/2SM BR BKN003 OVC005 00/M01 A3007 RMK AO2 T00001006= PABR 240253Z 08012KT 3SM BR BKN003 OVC005 00/M01 A3007= PABR 240304Z 09009KT 1 1/2SM R07/3000VP6000FT BR BKN003 OVC005 00/M01 A3006= SPECI PABR 240304Z 09009KT 1 1/2SM R07/3000VP6000FT BR BKN003 OVC005 00/M01 A3006 RMK AO2 T00001006= PABR 240317Z 09011KT 5SM -RA BR BKN003 OVC006 00/M01 A3006= SPECI PABR 240317Z 09011KT 5SM -RA BR BKN003 OVC006 00/M01 A3006 RMK AO2 UPB07E08RAB08 P0000 T00001006= PABR 240333Z 08010KT 1 3/4SM R07/4500VP6000FT BR BKN003 BKN006 OVC011 00/M01 A3006= SPECI PABR 240333Z 08010KT 1 3/4SM R07/4500VP6000FT BR BKN003 BKN006 OVC011 00/M01 A3006 RMK AO2 UPB07E08RAB08E29 P0000 T00001006= PABR 240344Z 09012KT 3SM BR BKN003 OVC006 00/M01 A3006= SPECI PABR 240344Z 09012KT 3SM BR BKN003 OVC006 00/M01 A3006 RMK AO2 UPB07E08RAB08E29 P0000 T00001006= PABR 240353Z 08011KT 5SM BR BKN003 OVC006 M01/M01 A3005= PABR 240404Z 09010KT 2 1/2SM BR BKN003 BKN006 OVC011 00/M01 A3005= SPECI PABR 240404Z 09010KT 2 1/2SM BR BKN003 BKN006 OVC011 00/M01 A3005 RMK AO2 T00001006= PABR 240409Z 10011KT 4SM BR BKN006 OVC010 M01/M01 A3005= SPECI PABR 240409Z 10011KT 4SM BR BKN006 OVC010 M01/M01 A3005 RMK AO2 T10061006= PABR 240425Z 10008KT 3/4SM R07/4500VP6000FT BR BKN005 OVC006 M01/M01 A3005= SPECI PABR 240425Z 10008KT 3/4SM R07/4500VP6000FT BR BKN005 OVC006 M01/M01 A3005 RMK AO2 UPB21E24 P0000 T10061006= PABR 240429Z 09007KT 1SM R07/4500VP6000FT BR BKN003 OVC006 M01/M01 A3005= SPECI PABR 240429Z 09007KT 1SM R07/4500VP6000FT BR BKN003 OVC006 M01/M01 A3005 RMK AO2 UPB21E24 P0000 T10061006= PABR 240453Z 08009KT 7SM SCT003 BKN006 M01/M01 A3004= PABR 240553Z 08009KT 9SM OVC008 00/M01 A3004= PABR 240631Z AUTO 10008KT 2 1/2SM -FZRA BR OVC007 M01/M01 A3003= PABR 240636Z AUTO 10010KT 4SM BR OVC007 M01/M01 A3003= PABR 240653Z AUTO 10009KT 6SM BR BKN006 OVC012 M01/M01 A3003= PABR 240749Z AUTO 09008KT 4SM BR OVC004 M01/M01 A3002= PABR 240753Z AUTO 10011KT 4SM BR OVC005 M01/M01 A3002= PABR 240803Z AUTO 10007KT 4SM BR OVC004 M01/M01 A3002=
 Alaska TAF Map

NOAA's National Weather Service
Alaska Aviation Weather Unit
6930 Sand Lake Road
Anchorage, AK 99502-1845
Disclaimer
Credits
Glossary
Privacy Policy
About Us
Career Opportunities
Contact AAWU Internet Services Site last modified: April, 17th 2012